createdAt,value
2018-12-29T00:01:10.703Z,47.73
2018-12-29T00:03:40.905Z,46.53
2018-12-29T00:06:11.188Z,43.67
2018-12-29T00:08:41.813Z,45.17
2018-12-29T00:11:12.263Z,46.57
2018-12-29T00:13:42.453Z,45.73
2018-12-29T00:16:12.828Z,45.93
2018-12-29T00:18:43.095Z,45.03
2018-12-29T00:21:13.268Z,46.03
2018-12-29T00:23:43.468Z,47.37
2018-12-29T00:26:13.879Z,45.80
2018-12-29T00:28:44.230Z,44.30
2018-12-29T00:31:14.415Z,44.23
2018-12-29T00:33:44.609Z,46.43
2018-12-29T00:36:14.894Z,44.80
2018-12-29T00:38:45.212Z,44.70
2018-12-29T00:41:15.403Z,43.13
2018-12-29T00:43:45.606Z,46.73
2018-12-29T00:46:15.913Z,42.63
2018-12-29T00:48:46.222Z,46.40
2018-12-29T00:51:16.418Z,48.67
2018-12-29T00:53:46.640Z,46.80
2018-12-29T00:56:16.913Z,42.87
2018-12-29T00:58:47.306Z,40.57
2018-12-29T01:01:17.473Z,41.67
2018-12-29T01:03:47.676Z,42.53
2018-12-29T01:06:18.042Z,42.93
2018-12-29T01:08:48.860Z,45.47
2018-12-29T01:11:19.123Z,45.27
2018-12-29T01:13:49.326Z,45.00
2018-12-29T01:16:19.708Z,46.67
2018-12-29T01:18:49.893Z,46.00
2018-12-29T01:21:20.196Z,44.80
2018-12-29T01:23:50.467Z,44.50
2018-12-29T01:26:20.657Z,44.87
2018-12-29T01:28:50.832Z,41.53
2018-12-29T01:31:21.135Z,39.70
2018-12-29T01:33:51.413Z,38.40
2018-12-29T01:36:21.612Z,32.40
2018-12-29T01:38:51.697Z,41.50
2018-12-29T01:41:21.968Z,35.63
2018-12-29T01:43:52.233Z,33.30
2018-12-29T01:46:22.408Z,30.43
2018-12-29T01:48:52.653Z,30.23
2018-12-29T01:51:22.932Z,31.90
2018-12-29T01:53:53.200Z,37.20
2018-12-29T01:56:23.382Z,37.80
2018-12-29T01:58:53.641Z,33.27
2018-12-29T02:01:23.833Z,30.70
2018-12-29T02:03:54.072Z,32.10
2018-12-29T02:06:24.329Z,32.10
2018-12-29T02:08:54.726Z,27.70
2018-12-29T02:11:24.915Z,27.23
2018-12-29T02:13:55.089Z,29.87
2018-12-29T02:16:25.369Z,28.50
2018-12-29T02:18:55.659Z,29.00
2018-12-29T02:21:25.821Z,27.80
2018-12-29T02:23:55.994Z,30.77
2018-12-29T02:26:26.292Z,33.40
2018-12-29T02:28:56.589Z,32.50
2018-12-29T02:31:26.846Z,34.80
2018-12-29T02:33:57.110Z,36.17
2018-12-29T02:36:27.361Z,35.70
2018-12-29T02:38:57.556Z,34.07
2018-12-29T02:41:27.825Z,36.27
2018-12-29T02:43:58.102Z,37.93
2018-12-29T02:46:28.266Z,33.47
2018-12-29T02:48:58.462Z,36.80
2018-12-29T02:51:28.733Z,35.90
2018-12-29T02:53:59.020Z,35.43
2018-12-29T02:56:29.204Z,35.17
2018-12-29T02:58:59.382Z,36.50
2018-12-29T03:01:29.641Z,34.30
2018-12-29T03:03:59.971Z,36.40
2018-12-29T03:06:30.160Z,40.40
2018-12-29T03:09:00.955Z,37.93
2018-12-29T03:11:31.350Z,39.07
2018-12-29T03:14:01.608Z,40.27
2018-12-29T03:16:31.891Z,35.30
2018-12-29T03:19:02.160Z,34.53
2018-12-29T03:21:32.351Z,40.17
2018-12-29T03:24:02.525Z,38.97
2018-12-29T03:26:32.868Z,35.13
2018-12-29T03:29:03.164Z,35.23
2018-12-29T03:31:33.339Z,36.57
2018-12-29T03:34:03.511Z,35.57
2018-12-29T03:36:33.795Z,37.93
2018-12-29T03:39:04.871Z,35.20
2018-12-29T03:41:35.071Z,37.33
2018-12-29T03:44:05.316Z,36.90
2018-12-29T03:46:35.596Z,38.23
2018-12-29T03:49:05.861Z,34.47
2018-12-29T03:51:36.062Z,35.83
2018-12-29T03:54:06.227Z,36.17
2018-12-29T03:56:36.490Z,36.50
2018-12-29T03:59:06.679Z,38.70
2018-12-29T04:01:36.951Z,32.50
2018-12-29T04:04:07.342Z,37.47
2018-12-29T04:06:37.514Z,41.80
2018-12-29T04:12:34.353Z,34.13
2018-12-29T04:15:05.017Z,31.87
2018-12-29T04:17:35.280Z,35.40
2018-12-29T04:20:05.822Z,29.53
2018-12-29T04:22:36.018Z,29.03
2018-12-29T04:25:06.293Z,27.97
2018-12-29T04:27:36.550Z,32.97
2018-12-29T04:30:06.771Z,36.23
2018-12-29T04:32:36.958Z,40.20
2018-12-29T04:35:07.333Z,55.30
2018-12-29T04:37:37.603Z,44.60
2018-12-29T04:40:07.843Z,53.40
2018-12-29T04:42:38.129Z,55.77
2018-12-29T04:45:08.341Z,54.90
2018-12-29T04:47:38.509Z,50.50
2018-12-29T04:50:09.465Z,48.37
2018-12-29T04:52:39.735Z,49.13
2018-12-29T04:55:09.997Z,54.27
2018-12-29T04:57:40.179Z,48.53
2018-12-29T05:00:10.809Z,44.70
2018-12-29T05:02:41.056Z,42.60
2018-12-29T05:05:11.332Z,39.00
2018-12-29T05:07:41.518Z,34.37
2018-12-29T05:10:11.812Z,38.70
2018-12-29T05:12:42.387Z,36.73
2018-12-29T05:15:12.672Z,34.27
2018-12-29T05:17:42.845Z,34.87
2018-12-29T05:20:13.126Z,37.50
2018-12-29T05:22:43.320Z,37.57
2018-12-29T05:25:13.578Z,39.93
2018-12-29T05:27:43.825Z,43.33
2018-12-29T05:30:14.025Z,43.17
2018-12-29T05:32:44.242Z,44.47
2018-12-29T05:35:15.339Z,41.80
2018-12-29T05:37:45.718Z,43.50
2018-12-29T05:40:15.905Z,49.87
2018-12-29T05:42:46.090Z,50.90
2018-12-29T05:45:16.384Z,48.93
2018-12-29T05:47:46.632Z,47.23
2018-12-29T05:50:16.809Z,48.00
2018-12-29T05:52:47.002Z,44.80
2018-12-29T05:55:17.257Z,44.90
2018-12-29T05:57:47.514Z,42.00
2018-12-29T06:00:17.685Z,40.47
2018-12-29T06:02:47.853Z,38.40
2018-12-29T06:05:18.113Z,33.20
2018-12-29T06:07:48.375Z,39.63
2018-12-29T06:10:18.561Z,42.63
2018-12-29T06:12:48.873Z,38.47
2018-12-29T06:15:19.155Z,44.60
2018-12-29T06:17:49.431Z,44.50
2018-12-29T06:20:19.672Z,44.30
2018-12-29T06:22:49.857Z,51.43
2018-12-29T06:25:20.143Z,49.60
2018-12-29T06:27:50.424Z,53.80
2018-12-29T06:30:20.709Z,62.07
2018-12-29T06:32:50.917Z,49.20
2018-12-29T06:35:21.184Z,51.33
2018-12-29T06:37:51.447Z,54.13
2018-12-29T06:40:22.406Z,54.23
2018-12-29T06:42:52.802Z,57.40
2018-12-29T06:45:22.966Z,84.40
2018-12-29T06:47:53.138Z,82.87
2018-12-29T06:50:23.418Z,97.10
2018-12-29T06:52:53.763Z,91.13
2018-12-29T06:55:23.920Z,91.60
2018-12-29T06:57:54.118Z,99.47
2018-12-29T07:00:24.369Z,136.77
2018-12-29T07:02:54.629Z,139.40
2018-12-29T07:05:24.824Z,125.80
2018-12-29T07:07:55.009Z,129.50
2018-12-29T07:10:25.316Z,141.17
2018-12-29T07:12:56.093Z,142.80
2018-12-29T07:15:26.378Z,132.80
2018-12-29T07:17:56.555Z,111.73
2018-12-29T07:20:26.919Z,78.83
2018-12-29T07:22:57.080Z,64.87
2018-12-29T07:25:27.810Z,73.03
2018-12-29T07:27:58.629Z,77.13
2018-12-29T07:30:29.078Z,76.33
2018-12-29T07:32:59.714Z,81.43
2018-12-29T07:35:30.952Z,83.57
2018-12-29T07:38:01.995Z,74.87
2018-12-29T07:40:32.498Z,59.97
2018-12-29T07:43:02.948Z,63.30
2018-12-29T07:45:33.472Z,48.77
2018-12-29T07:48:04.615Z,53.33
2018-12-29T07:50:35.216Z,57.87
2018-12-29T07:53:05.878Z,61.03
2018-12-29T07:55:37.246Z,53.97
2018-12-29T07:58:08.600Z,56.97
2018-12-29T08:00:39.206Z,57.87
2018-12-29T08:03:09.455Z,66.33
2018-12-29T08:05:40.059Z,73.30
2018-12-29T08:08:10.417Z,70.33
2018-12-29T08:10:40.811Z,75.17
2018-12-29T08:13:11.610Z,84.00
2018-12-29T08:15:41.928Z,95.43
2018-12-29T08:18:12.140Z,104.70
2018-12-29T08:20:43.764Z,74.23
2018-12-29T08:23:14.721Z,81.60
2018-12-29T08:25:45.300Z,73.20
2018-12-29T08:28:15.831Z,75.30
2018-12-29T08:30:46.089Z,73.07
2018-12-29T08:33:16.327Z,69.90
2018-12-29T08:35:46.510Z,74.47
2018-12-29T08:38:16.744Z,71.60
2018-12-29T08:40:46.957Z,75.30
2018-12-29T08:43:17.178Z,79.67
2018-12-29T08:45:47.430Z,87.43
2018-12-29T08:48:17.626Z,87.03
2018-12-29T08:50:47.785Z,91.20
2018-12-29T08:53:17.993Z,85.13
2018-12-29T08:55:48.262Z,89.00
2018-12-29T08:58:18.497Z,92.33
2018-12-29T09:00:48.732Z,107.30
2018-12-29T09:03:18.973Z,98.60
2018-12-29T09:05:49.238Z,104.60
2018-12-29T09:08:19.473Z,98.83
2018-12-29T09:10:49.668Z,102.47
2018-12-29T09:13:20.410Z,110.93
2018-12-29T09:15:50.896Z,106.03
2018-12-29T09:18:21.113Z,96.23
2018-12-29T09:20:51.428Z,99.40
2018-12-29T09:23:21.655Z,113.10
2018-12-29T09:25:51.810Z,112.47
2018-12-29T09:28:22.027Z,117.30
2018-12-29T09:30:52.292Z,114.30
2018-12-29T09:33:22.479Z,112.53
2018-12-29T09:35:52.675Z,100.60
2018-12-29T09:38:22.889Z,107.77
2018-12-29T09:40:53.205Z,71.43
2018-12-29T09:43:23.447Z,88.83
2018-12-29T09:45:53.627Z,78.30
2018-12-29T09:48:23.843Z,53.63
2018-12-29T09:50:54.096Z,67.67
2018-12-29T09:53:24.320Z,59.93
2018-12-29T09:55:54.586Z,39.93
2018-12-29T09:58:24.820Z,39.07
2018-12-29T10:00:55.060Z,56.37
2018-12-29T10:03:25.450Z,50.20
2018-12-29T10:05:55.720Z,43.47
2018-12-29T10:08:25.993Z,30.97
2018-12-29T10:10:56.167Z,22.27
2018-12-29T10:13:26.626Z,21.80
2018-12-29T10:15:57.580Z,12.20
2018-12-29T10:18:27.772Z,8.30
2018-12-29T10:20:57.923Z,3.23
2018-12-29T10:23:28.235Z,2.80
2018-12-29T10:25:58.489Z,4.47
2018-12-29T10:28:28.680Z,1.80
2018-12-29T10:30:58.932Z,2.90
2018-12-29T10:33:29.062Z,3.60
2018-12-29T10:35:59.401Z,1.70
2018-12-29T10:38:29.691Z,1.50
2018-12-29T10:40:59.900Z,1.80
2018-12-29T10:43:30.149Z,2.20
2018-12-29T10:46:00.460Z,1.60
2018-12-29T10:48:30.785Z,2.70
2018-12-29T10:51:01.041Z,1.20
2018-12-29T10:53:31.262Z,3.10
2018-12-29T10:56:01.444Z,3.00
2018-12-29T10:58:31.668Z,2.13
2018-12-29T11:01:01.938Z,2.40
2018-12-29T11:03:32.208Z,1.20
2018-12-29T11:06:02.369Z,2.80
2018-12-29T11:08:33.003Z,3.27
2018-12-29T11:11:03.502Z,2.40
2018-12-29T11:13:33.725Z,4.80
2018-12-29T11:16:04.023Z,4.70
2018-12-29T11:18:34.231Z,5.10
2018-12-29T11:21:04.510Z,4.60
2018-12-29T11:23:34.713Z,5.87
2018-12-29T11:26:04.883Z,2.73
2018-12-29T11:28:35.093Z,1.20
2018-12-29T11:31:05.351Z,3.00
2018-12-29T11:33:35.572Z,3.33
2018-12-29T11:36:05.775Z,1.77
2018-12-29T11:38:35.984Z,2.23
2018-12-29T11:41:06.238Z,2.00
2018-12-29T11:43:36.452Z,2.20
2018-12-29T11:46:06.630Z,2.77
2018-12-29T11:48:36.874Z,2.80
2018-12-29T11:51:07.149Z,2.47
2018-12-29T11:53:37.357Z,2.30
2018-12-29T11:56:07.541Z,2.67
2018-12-29T11:58:37.867Z,3.10
2018-12-29T12:01:08.078Z,1.60
2018-12-29T12:03:38.592Z,2.40
2018-12-29T12:06:08.817Z,2.57
2018-12-29T12:08:39.011Z,1.80
2018-12-29T12:11:09.158Z,1.90
2018-12-29T12:13:39.361Z,2.30
2018-12-29T12:16:09.949Z,1.70
2018-12-29T12:18:40.422Z,2.20
2018-12-29T12:21:10.584Z,2.70
2018-12-29T12:23:40.945Z,1.27
2018-12-29T12:26:11.318Z,2.03
2018-12-29T12:28:41.502Z,1.50
2018-12-29T12:31:11.678Z,1.73
2018-12-29T12:33:41.903Z,3.03
2018-12-29T12:36:12.167Z,2.70
2018-12-29T12:38:42.411Z,2.00
2018-12-29T12:41:12.621Z,2.30
2018-12-29T12:43:42.857Z,2.57
2018-12-29T12:46:13.529Z,2.40
2018-12-29T12:48:43.899Z,2.60
2018-12-29T12:51:14.168Z,3.30
2018-12-29T12:53:44.483Z,2.50
2018-12-29T12:56:14.728Z,3.30
2018-12-29T12:58:44.964Z,2.57
2018-12-29T13:01:15.383Z,2.90
2018-12-29T13:03:45.587Z,4.77
2018-12-29T13:06:15.754Z,5.50
2018-12-29T13:08:45.979Z,5.13
2018-12-29T13:11:16.241Z,3.50
2018-12-29T13:13:46.643Z,7.10
2018-12-29T13:16:16.819Z,4.97
2018-12-29T13:18:47.039Z,8.93
2018-12-29T13:21:17.374Z,4.10
2018-12-29T13:23:47.588Z,6.00
2018-12-29T13:26:17.867Z,4.50
2018-12-29T13:28:48.123Z,3.30
2018-12-29T13:31:18.348Z,4.70
2018-12-29T13:33:48.556Z,3.40
2018-12-29T13:36:18.830Z,4.50
2018-12-29T13:38:49.023Z,4.20
2018-12-29T13:41:19.188Z,3.80
2018-12-29T13:43:49.390Z,6.00
2018-12-29T13:46:20.005Z,4.03
2018-12-29T13:48:50.224Z,1.60
2018-12-29T13:51:20.387Z,1.10
2018-12-29T13:53:50.626Z,2.10
2018-12-29T13:56:20.864Z,3.67
2018-12-29T13:58:51.052Z,3.70
2018-12-29T14:01:21.282Z,1.40
2018-12-29T14:03:51.511Z,2.00
2018-12-29T14:06:21.671Z,1.30
2018-12-29T14:08:52.071Z,3.10
2018-12-29T14:11:22.411Z,1.93
2018-12-29T14:13:52.622Z,3.90
2018-12-29T14:16:23.131Z,3.13
2018-12-29T14:18:53.795Z,2.23
2018-12-29T14:21:24.130Z,2.23
2018-12-29T14:23:54.519Z,3.50
2018-12-29T14:26:24.658Z,3.80
2018-12-29T14:28:54.857Z,7.20
2018-12-29T14:31:25.082Z,3.97
2018-12-29T14:33:55.258Z,4.37
2018-12-29T14:36:25.430Z,2.73
2018-12-29T14:38:55.717Z,3.10
2018-12-29T14:41:26.319Z,9.07
2018-12-29T14:43:56.564Z,9.67
2018-12-29T14:46:26.851Z,13.80
2018-12-29T14:48:57.086Z,11.00
2018-12-29T14:51:27.230Z,7.17
2018-12-29T14:53:57.551Z,10.37
2018-12-29T14:56:27.821Z,8.00
2018-12-29T14:58:58.059Z,12.40
2018-12-29T15:01:28.220Z,8.90
2018-12-29T15:03:58.441Z,6.53
2018-12-29T15:06:28.683Z,7.50
2018-12-29T15:08:58.864Z,13.97
2018-12-29T15:11:29.071Z,15.60
2018-12-29T15:13:59.274Z,12.90
2018-12-29T15:16:30.087Z,28.20
2018-12-29T15:19:00.392Z,16.67
2018-12-29T15:21:31.071Z,8.97
2018-12-29T15:24:01.379Z,16.67
2018-12-29T15:26:31.554Z,17.60
2018-12-29T15:29:01.788Z,12.43
2018-12-29T15:31:32.086Z,11.97
2018-12-29T15:34:02.296Z,12.97
2018-12-29T15:36:32.628Z,24.40
2018-12-29T15:39:02.941Z,23.60
2018-12-29T15:41:33.263Z,13.37
2018-12-29T15:44:04.039Z,15.67
2018-12-29T15:46:34.216Z,16.97
2018-12-29T15:49:04.444Z,21.43
2018-12-29T15:51:34.721Z,12.97
2018-12-29T15:54:04.925Z,14.47
2018-12-29T15:56:35.551Z,18.00
2018-12-29T15:59:05.759Z,37.40
2018-12-29T16:01:36.047Z,34.57
2018-12-29T16:04:06.276Z,33.70
2018-12-29T16:06:55.305Z,26.77
2018-12-29T16:09:26.005Z,16.33
2018-12-29T16:11:56.550Z,17.20
2018-12-29T16:14:26.766Z,13.33
2018-12-29T16:16:57.097Z,18.80
2018-12-29T16:19:27.287Z,44.10
2018-12-29T16:21:57.452Z,27.63
2018-12-29T16:24:27.658Z,17.13
2018-12-29T16:26:58.010Z,15.53
2018-12-29T16:29:28.312Z,13.47
2018-12-29T16:31:58.589Z,11.00
2018-12-29T16:34:28.819Z,5.93
2018-12-29T16:36:59.155Z,16.00
2018-12-29T16:39:29.837Z,9.93
2018-12-29T16:42:00.073Z,16.20
2018-12-29T16:44:30.308Z,16.30
2018-12-29T16:47:00.566Z,12.97
2018-12-29T16:49:31.151Z,32.17
2018-12-29T16:52:01.310Z,33.73
2018-12-29T16:54:31.594Z,56.80
2018-12-29T16:57:01.947Z,36.80
2018-12-29T16:59:32.649Z,29.40
2018-12-29T17:02:02.930Z,28.40
2018-12-29T17:04:33.148Z,26.57
2018-12-29T17:07:03.492Z,22.70
2018-12-29T17:09:33.809Z,33.63
2018-12-29T17:12:03.963Z,30.33
2018-12-29T17:14:34.176Z,36.60
2018-12-29T17:17:04.449Z,31.63
2018-12-29T17:19:35.035Z,33.77
2018-12-29T17:22:05.291Z,37.20
2018-12-29T17:24:35.533Z,29.30
2018-12-29T17:27:06.094Z,39.27
2018-12-29T17:29:36.337Z,53.03
2018-12-29T17:32:06.685Z,37.50
2018-12-29T17:34:36.889Z,28.37
2018-12-29T17:37:07.057Z,19.80
2018-12-29T17:39:37.782Z,16.30
2018-12-29T17:42:08.040Z,18.00
2018-12-29T17:44:38.247Z,18.67
2018-12-29T17:47:08.378Z,9.43
2018-12-29T17:49:38.567Z,9.73
2018-12-29T17:52:08.807Z,8.90
2018-12-29T17:54:38.981Z,9.97
2018-12-29T17:57:09.150Z,10.90
2018-12-29T17:59:39.386Z,9.07
2018-12-29T18:02:09.608Z,9.87
2018-12-29T18:04:40.253Z,11.20
2018-12-29T18:07:10.587Z,8.70
2018-12-29T18:09:41.144Z,13.73
2018-12-29T18:12:11.554Z,10.13
2018-12-29T18:14:41.919Z,9.30
2018-12-29T18:17:12.274Z,9.20
2018-12-29T18:19:42.552Z,11.27
2018-12-29T18:22:12.877Z,13.77
2018-12-29T18:24:43.187Z,17.80
2018-12-29T18:27:13.463Z,15.13
2018-12-29T18:29:43.756Z,17.13
2018-12-29T18:32:13.984Z,17.30
2018-12-29T18:34:44.304Z,10.60
2018-12-29T18:37:15.073Z,11.37
2018-12-29T18:39:45.303Z,12.23
2018-12-29T18:42:15.699Z,9.60
2018-12-29T18:44:46.001Z,12.90
2018-12-29T18:47:16.170Z,8.73
2018-12-29T18:49:46.381Z,4.90
2018-12-29T18:52:16.608Z,6.70
2018-12-29T18:54:46.909Z,7.80
2018-12-29T18:57:17.113Z,10.83
2018-12-29T18:59:47.343Z,11.17
2018-12-29T19:02:17.608Z,17.03
2018-12-29T19:04:47.914Z,15.30
2018-12-29T19:07:18.511Z,19.00
2018-12-29T19:09:49.234Z,19.50
2018-12-29T19:12:19.629Z,18.20
2018-12-29T19:14:49.874Z,16.67
2018-12-29T19:17:20.236Z,13.57
2018-12-29T19:19:51.018Z,8.90
2018-12-29T19:22:21.267Z,7.13
2018-12-29T19:24:51.512Z,7.73
2018-12-29T19:27:21.812Z,6.27
2018-12-29T19:29:52.044Z,14.47
2018-12-29T19:32:22.251Z,12.40
2018-12-29T19:34:52.972Z,7.50
2018-12-29T19:37:23.442Z,7.80
2018-12-29T19:39:53.938Z,7.33
2018-12-29T19:42:24.219Z,6.20
2018-12-29T19:44:54.461Z,7.60
2018-12-29T19:47:24.874Z,8.07
2018-12-29T19:49:55.499Z,5.97
2018-12-29T19:52:25.743Z,6.87
2018-12-29T19:54:55.932Z,4.10
2018-12-29T19:57:26.703Z,6.50
2018-12-29T19:59:56.996Z,4.77
2018-12-29T20:02:27.763Z,4.33
2018-12-29T20:04:58.183Z,4.47
2018-12-29T20:07:28.406Z,5.00
2018-12-29T20:09:58.777Z,5.57
2018-12-29T20:12:29.675Z,4.27
2018-12-29T20:14:59.891Z,4.17
2018-12-29T20:17:34.941Z,4.40
2018-12-29T20:20:02.167Z,3.70
2018-12-29T20:22:32.446Z,4.03
2018-12-29T20:25:02.644Z,2.80
2018-12-29T20:27:32.837Z,3.07
2018-12-29T20:30:03.354Z,3.50
2018-12-29T20:32:33.610Z,3.67
2018-12-29T20:35:03.831Z,3.27
2018-12-29T20:37:34.014Z,3.77
2018-12-29T20:40:04.366Z,2.83
2018-12-29T20:42:34.658Z,3.57
2018-12-29T20:45:05.065Z,3.90
2018-12-29T20:47:35.367Z,3.97
2018-12-29T20:50:09.498Z,3.80
2018-12-29T20:52:37.562Z,3.73
2018-12-29T20:55:07.778Z,4.83
2018-12-29T20:57:38.046Z,7.70
2018-12-29T21:00:10.101Z,11.33
2018-12-29T21:02:40.285Z,19.93
2018-12-29T21:05:12.336Z,18.13
2018-12-29T21:07:42.673Z,15.47
2018-12-29T21:10:13.001Z,15.40
2018-12-29T21:12:43.209Z,13.10
2018-12-29T21:15:13.541Z,28.47
2018-12-29T21:17:44.195Z,27.60
2018-12-29T21:20:17.528Z,20.57
2018-12-29T21:25:22.313Z,13.50
2018-12-29T21:27:52.558Z,14.17
2018-12-29T21:30:22.767Z,7.50
2018-12-29T21:32:53.050Z,10.60
2018-12-29T21:35:23.319Z,9.97
2018-12-29T21:37:53.938Z,9.10
2018-12-29T21:40:26.054Z,8.90
2018-12-29T21:42:56.431Z,7.17
2018-12-29T21:45:26.787Z,8.40
2018-12-29T21:47:56.995Z,8.60
2018-12-29T21:50:27.205Z,10.27
2018-12-29T21:52:59.459Z,8.73
2018-12-29T21:55:29.830Z,12.37
2018-12-29T21:58:00.088Z,21.00
2018-12-29T22:00:30.367Z,19.27
2018-12-29T22:03:00.650Z,19.57
2018-12-29T22:05:30.898Z,18.97
2018-12-29T22:08:01.145Z,16.13
2018-12-29T22:10:31.347Z,15.73
2018-12-29T22:13:01.635Z,18.23
2018-12-29T22:15:31.975Z,18.90
2018-12-29T22:18:02.147Z,17.80
2018-12-29T22:20:33.342Z,15.30
2018-12-29T22:23:04.037Z,14.20
2018-12-29T22:25:34.311Z,12.00
2018-12-29T22:28:04.479Z,11.80
2018-12-29T22:30:34.664Z,12.20
2018-12-29T22:33:04.951Z,13.60
2018-12-29T22:35:35.194Z,19.07
2018-12-29T22:38:05.371Z,15.40
2018-12-29T22:40:35.666Z,19.40
2018-12-29T22:43:05.914Z,19.20
2018-12-29T22:45:36.095Z,14.90
2018-12-29T22:48:06.387Z,16.30
2018-12-29T22:50:40.945Z,15.20
2018-12-29T22:55:44.593Z,10.37
2018-12-29T22:58:14.867Z,9.27
2018-12-29T23:01:05.149Z,9.50
2018-12-29T23:03:35.794Z,12.80
2018-12-29T23:06:06.071Z,10.23
2018-12-29T23:08:36.330Z,8.70
2018-12-29T23:11:07.004Z,9.10
2018-12-29T23:13:37.279Z,15.93
2018-12-29T23:16:07.584Z,10.50
2018-12-29T23:18:37.876Z,10.50
2018-12-29T23:21:08.229Z,9.27
2018-12-29T23:23:38.426Z,9.10
2018-12-29T23:26:08.857Z,9.87
2018-12-29T23:28:39.059Z,11.00
2018-12-29T23:31:09.699Z,9.80
2018-12-29T23:33:39.976Z,8.10
2018-12-29T23:36:10.245Z,6.57
2018-12-29T23:38:40.420Z,9.07
2018-12-29T23:41:10.689Z,7.10
2018-12-29T23:43:41.469Z,7.63
2018-12-29T23:46:11.732Z,8.80
2018-12-29T23:48:42.000Z,8.03
2018-12-29T23:51:12.235Z,9.53
2018-12-29T23:53:42.513Z,9.00
2018-12-29T23:56:12.946Z,8.17
2018-12-29T23:58:43.106Z,8.27
